Time;durP1;ratioP1;P1;durP2;ratioP2;P2;SDS_P1;SDS_P2;PMS_P1;PMS_P2;Temp;Humidity;BMP_temperature;BMP_pressure;BME280_temperature;BME280_humidity;BME280_pressure;Samples;Min_cycle;Max_cycle;Signal;HPM_P1;HPM_P2
2023/03/27 00:00:19;;;;;;;10.57;6.57;;;;;;;12.54;100.00;100777.34;2078158;28;20053;-73
2023/03/27 00:01:43;;;;;;;9.05;6.32;;;;;;;12.57;100.00;100772.09;2061332;28;20050;-72
2023/03/27 00:03:04;;;;;;;9.45;7.55;;;;;;;12.58;100.00;100774.75;2073716;28;20053;-72
2023/03/27 00:04:27;;;;;;;11.05;7.85;;;;;;;12.56;100.00;100768.56;2086406;28;20041;-73
2023/03/27 00:05:58;;;;;;;10.75;7.65;;;;;;;12.50;100.00;100767.63;2082220;28;20141;-72
2023/03/27 00:07:22;;;;;;;13.10;8.52;;;;;;;12.42;100.00;100772.84;2072320;28;20399;-72
2023/03/27 00:08:45;;;;;;;12.65;9.07;;;;;;;12.33;100.00;100764.84;2080263;28;20041;-72
2023/03/27 00:10:08;;;;;;;14.13;9.05;;;;;;;12.19;100.00;100770.03;2072705;28;20061;-73
2023/03/27 00:11:33;;;;;;;18.08;13.73;;;;;;;12.12;100.00;100775.25;2072863;28;20144;-72
2023/03/27 00:12:54;;;;;;;16.73;12.77;;;;;;;12.08;100.00;100774.31;2068282;28;20053;-72
2023/03/27 00:14:17;;;;;;;12.25;9.90;;;;;;;12.06;100.00;100780.47;2075675;28;20080;-72
2023/03/27 00:15:38;;;;;;;12.70;8.35;;;;;;;12.03;100.00;100777.78;2078396;28;20500;-73
2023/03/27 00:17:01;;;;;;;9.10;6.93;;;;;;;11.97;100.00;100782.16;2073295;28;20054;-73
2023/03/27 00:18:22;;;;;;;9.15;6.53;;;;;;;11.88;100.00;100774.09;2078028;28;20522;-72
2023/03/27 00:19:45;;;;;;;8.85;6.32;;;;;;;11.82;100.00;100781.09;2072610;28;20046;-73
2023/03/27 00:21:08;;;;;;;9.70;5.95;;;;;;;11.76;100.00;100784.56;2069971;28;20050;-74
2023/03/27 00:22:29;;;;;;;13.95;9.00;;;;;;;11.77;100.00;100782.81;2070052;28;20506;-73
2023/03/27 00:23:53;;;;;;;16.00;10.48;;;;;;;11.90;100.00;100790.00;2076195;28;20037;-72
2023/03/27 00:25:16;;;;;;;12.05;8.00;;;;;;;12.01;100.00;100792.78;2086583;28;20045;-72
2023/03/27 00:26:41;;;;;;;11.18;8.00;;;;;;;12.08;100.00;100786.69;2075130;28;20080;-72
2023/03/27 00:28:04;;;;;;;8.57;6.43;;;;;;;12.16;100.00;100784.97;2076209;28;20430;-72
2023/03/27 00:29:27;;;;;;;7.90;6.35;;;;;;;12.21;100.00;100785.88;2080645;28;20072;-73
2023/03/27 00:30:48;;;;;;;9.57;6.88;;;;;;;12.22;100.00;100779.72;2075654;28;20538;-72
2023/03/27 00:32:11;;;;;;;13.38;7.03;;;;;;;12.21;100.00;100776.19;2079680;28;20049;-71
2023/03/27 00:33:32;;;;;;;10.05;7.05;;;;;;;12.21;100.00;100778.84;2083719;28;20057;-72
2023/03/27 00:34:54;;;;;;;9.55;6.60;;;;;;;12.20;100.00;100781.50;2078166;28;20045;-72
2023/03/27 00:36:17;;;;;;;11.00;6.68;;;;;;;12.18;100.00;100778.84;2083585;28;20044;-73
2023/03/27 00:37:40;;;;;;;10.73;7.15;;;;;;;12.17;100.00;100778.81;2077879;28;20462;-73
2023/03/27 00:39:03;;;;;;;10.43;6.70;;;;;;;12.14;100.00;100771.72;2061826;28;20073;-73
2023/03/27 00:40:25;;;;;;;10.75;6.40;;;;;;;12.14;100.00;100773.50;2067447;28;20050;-72
2023/03/27 00:41:49;;;;;;;10.45;6.22;;;;;;;12.13;100.00;100775.25;2067125;28;20152;-72
2023/03/27 00:43:19;;;;;;;10.00;6.68;;;;;;;12.11;100.00;100763.75;2075713;28;20038;-73
2023/03/27 00:44:41;;;;;;;12.63;10.23;;;;;;;12.10;100.00;100766.38;2077763;28;20041;-72
2023/03/27 00:46:06;;;;;;;11.38;8.82;;;;;;;12.10;100.00;100763.75;2069805;28;20084;-74
2023/03/27 00:47:32;;;;;;;11.80;9.07;;;;;;;12.02;100.00;100762.78;2075193;28;20369;-73
2023/03/27 00:48:54;;;;;;;13.60;10.32;;;;;;;11.89;100.00;100756.47;2070210;28;20045;-72
2023/03/27 00:50:21;;;;;;;12.45;11.10;;;;;;;11.75;100.00;100760.78;2069685;28;20099;-72
2023/03/27 00:51:45;;;;;;;11.30;9.43;;;;;;;11.65;100.00;100762.38;2079780;28;20502;-72
2023/03/27 00:53:11;;;;;;;11.45;8.23;;;;;;;11.58;100.00;100757.88;2071511;28;20042;-73
2023/03/27 00:54:37;;;;;;;13.68;12.07;;;;;;;11.49;100.00;100765.69;2074429;28;20052;-73
2023/03/27 00:56:04;;;;;;;22.15;19.40;;;;;;;11.48;100.00;100766.59;2072313;28;20502;-73
2023/03/27 00:57:28;;;;;;;26.38;23.67;;;;;;;11.52;100.00;100768.41;2086236;28;20065;-73
2023/03/27 00:58:51;;;;;;;13.77;11.25;;;;;;;11.57;100.00;100757.00;2080349;28;20057;-72
2023/03/27 01:00:15;;;;;;;16.15;12.82;;;;;;;11.64;100.00;100763.25;2069750;28;20046;-72
2023/03/27 01:01:40;;;;;;;14.88;13.32;;;;;;;11.68;100.00;100765.06;2083774;28;20053;-72
2023/03/27 01:03:08;;;;;;;13.95;9.70;;;;;;;11.68;100.00;100762.44;2067986;28;20090;-72
2023/03/27 01:04:32;;;;;;;13.65;11.98;;;;;;;11.67;100.00;100762.41;2071752;28;20049;-72
2023/03/27 01:05:55;;;;;;;9.82;7.63;;;;;;;11.66;100.00;100758.88;2070073;28;20148;-72
2023/03/27 01:07:17;;;;;;;14.70;13.15;;;;;;;11.64;100.00;100757.06;2079014;28;20144;-72
2023/03/27 01:08:41;;;;;;;11.15;8.45;;;;;;;11.65;100.00;100751.81;2069188;28;20049;-72
2023/03/27 01:10:05;;;;;;;13.85;7.45;;;;;;;11.68;100.00;100753.59;2068062;28;20573;-72
2023/03/27 01:11:41;;;;;;;9.55;7.47;;;;;;;11.71;100.00;100748.31;2066598;28;20040;-73
2023/03/27 01:13:17;;;;;;;9.88;6.88;;;;;;;11.71;100.00;100757.16;2078911;28;20359;-72
2023/03/27 01:14:51;;;;;;;12.18;7.05;;;;;;;11.74;100.00;100756.34;2077901;28;20370;-73
2023/03/27 01:16:22;;;;;;;12.80;8.48;;;;;;;11.76;100.00;100759.88;2063274;28;20081;-73
2023/03/27 01:17:56;;;;;;;13.23;8.35;;;;;;;11.75;100.00;100751.03;2062479;28;20506;-73
2023/03/27 01:20:05;;;;;;;10.05;6.63;;;;;;;11.70;100.00;100744.78;2079250;28;20081;-72
2023/03/27 01:21:57;;;;;;;9.55;6.40;;;;;;;11.67;100.00;100750.06;2031729;29;20056;-72
2023/03/27 01:23:45;;;;;;;9.57;6.55;;;;;;;11.65;100.00;100749.16;2049797;28;20038;-72
2023/03/27 01:25:42;;;;;;;14.55;10.00;;;;;;;11.62;100.00;100743.81;2083019;28;20055;-72
2023/03/27 01:27:10;;;;;;;12.45;7.72;;;;;;;11.62;100.00;100749.09;2068551;28;20056;-72
2023/03/27 01:28:55;;;;;;;11.57;7.13;;;;;;;11.63;100.00;100744.72;2076163;28;20053;-73
2023/03/27 01:30:24;;;;;;;9.95;7.07;;;;;;;11.63;100.00;100742.97;2072054;28;20068;-73
2023/03/27 01:32:04;;;;;;;10.55;6.80;;;;;;;11.65;100.00;100745.63;2073728;28;20041;-73
2023/03/27 01:34:14;;;;;;;10.48;6.38;;;;;;;11.64;100.00;100742.09;2079374;28;20087;-72
2023/03/27 01:36:12;;;;;;;7.55;5.57;;;;;;;11.65;100.00;100741.22;2049110;28;20599;-72
2023/03/27 01:37:59;;;;;;;9.13;5.85;;;;;;;11.65;100.00;100742.97;2050952;28;20081;-72
2023/03/27 01:39:33;;;;;;;10.70;6.45;;;;;;;11.65;100.00;100749.16;2043072;29;20138;-72
2023/03/27 01:41:01;;;;;;;11.18;6.78;;;;;;;11.66;100.00;100745.66;2067117;28;20629;-72
2023/03/27 01:42:31;;;;;;;10.23;6.55;;;;;;;11.69;100.00;100748.31;2080184;28;20596;-72
2023/03/27 01:43:57;;;;;;;10.30;6.95;;;;;;;11.70;100.00;100749.19;2078315;28;20057;-72
2023/03/27 01:45:23;;;;;;;8.77;5.85;;;;;;;11.70;100.00;100747.44;2078152;28;20486;-73
2023/03/27 01:46:50;;;;;;;10.27;6.05;;;;;;;11.69;100.00;100745.66;2077083;28;20050;-72
2023/03/27 01:48:20;;;;;;;9.45;6.47;;;;;;;11.69;100.00;100745.66;2061191;28;20062;-72
2023/03/27 01:49:50;;;;;;;8.38;6.57;;;;;;;11.70;100.00;100746.56;2075496;28;20053;-72
2023/03/27 01:51:18;;;;;;;8.25;6.07;;;;;;;11.69;100.00;100736.84;2088082;28;20139;-73
2023/03/27 01:52:44;;;;;;;9.90;6.20;;;;;;;11.69;100.00;100743.00;2079571;28;20042;-73
2023/03/27 01:54:14;;;;;;;8.93;6.07;;;;;;;11.68;100.00;100738.63;2063730;28;20097;-72
2023/03/27 01:55:43;;;;;;;10.60;6.07;;;;;;;11.68;100.00;100738.63;2076946;28;20076;-73
2023/03/27 01:57:15;;;;;;;10.07;6.22;;;;;;;11.68;100.00;100740.38;2063370;28;20046;-73
2023/03/27 01:58:45;;;;;;;8.02;5.50;;;;;;;11.69;100.00;100736.84;2068706;28;20049;-73
2023/03/27 02:00:13;;;;;;;8.65;5.82;;;;;;;11.68;100.00;100738.63;2072082;28;20053;-72
2023/03/27 02:01:44;;;;;;;11.40;7.30;;;;;;;11.70;100.00;100736.88;2077324;28;20553;-73
2023/03/27 02:03:11;;;;;;;7.45;4.85;;;;;;;11.65;100.00;100738.59;2077611;28;20052;-72
2023/03/27 02:04:41;;;;;;;8.43;4.90;;;;;;;11.63;100.00;100736.78;2069850;28;20517;-72
2023/03/27 02:06:08;;;;;;;7.28;4.65;;;;;;;11.61;100.00;100738.53;2068487;28;20494;-73
2023/03/27 02:07:37;;;;;;;9.43;5.85;;;;;;;11.58;100.00;100736.72;2069749;28;20049;-72
2023/03/27 02:09:05;;;;;;;8.60;6.03;;;;;;;11.58;100.00;100727.06;2076063;28;20052;-73
2023/03/27 02:10:32;;;;;;;10.65;6.78;;;;;;;11.63;100.00;100728.84;2070646;28;20120;-72
2023/03/27 02:12:10;;;;;;;9.88;7.03;;;;;;;11.62;100.00;100737.69;2077915;28;20057;-73
2023/03/27 02:13:35;;;;;;;26.48;22.95;;;;;;;11.63;100.00;100737.66;2069931;28;20049;-73
2023/03/27 02:15:02;;;;;;;16.92;14.60;;;;;;;11.63;100.00;100724.44;2066680;28;20037;-73
2023/03/27 02:16:32;;;;;;;12.68;10.57;;;;;;;11.66;100.00;100731.53;2067976;28;20050;-73
2023/03/27 02:18:03;;;;;;;9.13;6.00;;;;;;;11.67;100.00;100728.03;2069094;28;20172;-73
2023/03/27 02:19:32;;;;;;;9.38;6.93;;;;;;;11.66;100.00;100729.78;2067017;28;20046;-72
2023/03/27 02:20:54;;;;;;;10.27;6.05;;;;;;;11.65;100.00;100728.00;2068186;28;20491;-72
2023/03/27 02:22:17;;;;;;;12.73;11.40;;;;;;;11.68;100.00;100732.44;2077063;28;20080;-72
2023/03/27 02:23:46;;;;;;;41.42;29.50;;;;;;;11.68;100.00;100725.41;2071889;28;20064;-73
2023/03/27 02:25:27;;;;;;;28.85;22.48;;;;;;;11.71;100.00;100727.19;2074720;28;20144;-73
2023/03/27 02:26:55;;;;;;;10.73;7.15;;;;;;;11.69;100.00;100729.78;2077827;28;20049;-73
2023/03/27 02:28:41;;;;;;;8.77;5.85;;;;;;;11.70;100.00;100728.03;2084414;28;20075;-72
2023/03/27 02:30:14;;;;;;;8.40;5.18;;;;;;;11.69;100.00;100726.25;2086270;28;20036;-72
2023/03/27 02:31:52;;;;;;;7.47;5.45;;;;;;;11.70;100.00;100717.47;2061843;28;20046;-72
2023/03/27 02:33:24;;;;;;;10.57;6.72;;;;;;;11.71;100.00;100725.41;2071444;28;20072;-72
2023/03/27 02:35:04;;;;;;;10.02;5.53;;;;;;;11.72;100.00;100724.56;2070530;28;20065;-71
2023/03/27 02:36:39;;;;;;;7.15;5.20;;;;;;;11.70;100.00;100726.28;2070951;28;20085;-72
2023/03/27 02:38:10;;;;;;;6.68;4.75;;;;;;;11.67;100.00;100728.03;2077394;28;20103;-73
2023/03/27 02:39:53;;;;;;;6.82;4.18;;;;;;;11.63;100.00;100727.09;2071545;28;20057;-73
2023/03/27 02:41:22;;;;;;;7.45;4.97;;;;;;;11.63;100.00;100729.72;2068646;28;20078;-72
2023/03/27 02:42:57;;;;;;;8.77;4.60;;;;;;;11.64;100.00;100731.50;2069825;28;20854;-72
2023/03/27 02:44:30;;;;;;;9.93;6.13;;;;;;;11.64;100.00;100722.69;2096744;28;20049;-72
2023/03/27 02:46:06;;;;;;;6.97;5.00;;;;;;;11.65;100.00;100724.47;2081705;28;20099;-72
2023/03/27 02:47:35;;;;;;;6.32;3.97;;;;;;;11.63;100.00;100719.16;2071706;28;20065;-72
2023/03/27 02:49:03;;;;;;;6.13;3.90;;;;;;;11.61;100.00;100720.91;2069661;28;20081;-73
2023/03/27 02:50:30;;;;;;;6.68;4.15;;;;;;;11.57;100.00;100717.34;2071541;28;20065;-73
2023/03/27 02:52:03;;;;;;;6.22;3.88;;;;;;;11.56;100.00;100717.31;2071092;28;20048;-73
2023/03/27 02:53:28;;;;;;;7.20;4.03;;;;;;;11.52;100.00;100715.53;2068236;28;20050;-73
2023/03/27 02:54:56;;;;;;;5.88;3.80;;;;;;;11.51;100.00;100714.63;2068980;28;20053;-73
2023/03/27 02:56:22;;;;;;;6.18;4.28;;;;;;;11.50;100.00;100714.59;2076674;28;20052;-73
2023/03/27 02:57:48;;;;;;;5.38;3.83;;;;;;;11.50;100.00;100710.22;2072898;28;20049;-73
2023/03/27 02:59:44;;;;;;;5.15;3.58;;;;;;;11.44;100.00;100711.91;2072774;28;20053;-73
2023/03/27 03:01:09;;;;;;;7.00;3.63;;;;;;;11.38;100.00;100706.53;2078899;28;20038;-73
2023/03/27 03:03:06;;;;;;;5.65;3.90;;;;;;;11.28;100.00;100709.97;2078073;28;20061;-73
2023/03/27 03:04:31;;;;;;;6.78;4.50;;;;;;;11.23;100.00;100716.94;2070742;28;20058;-73
2023/03/27 03:06:03;;;;;;;6.10;3.60;;;;;;;11.27;100.00;100713.47;2077897;28;20053;-72
2023/03/27 03:07:25;;;;;;;7.30;4.00;;;;;;;11.23;100.00;100714.28;2072862;28;20402;-73
2023/03/27 03:08:49;;;;;;;5.75;4.13;;;;;;;11.24;100.00;100716.06;2076645;28;20110;-72
2023/03/27 03:10:12;;;;;;;7.18;5.13;;;;;;;11.23;100.00;100715.19;2059642;28;20050;-73
2023/03/27 03:11:35;;;;;;;35.72;31.00;;;;;;;11.29;100.00;100719.69;2068159;28;20740;-72
2023/03/27 03:12:57;;;;;;;12.50;9.82;;;;;;;11.36;100.00;100719.75;2062616;28;20042;-73
2023/03/27 03:14:22;;;;;;;14.13;11.30;;;;;;;11.39;100.00;100717.16;2083598;28;20389;-73
2023/03/27 03:15:45;;;;;;;9.60;7.63;;;;;;;11.40;100.00;100713.63;2067296;28;20049;-73
2023/03/27 03:17:08;;;;;;;9.85;6.18;;;;;;;11.39;100.00;100709.22;2059989;28;20170;-73
2023/03/27 03:18:29;;;;;;;15.75;9.15;;;;;;;11.38;100.00;100707.44;2074397;28;20501;-73
2023/03/27 03:19:53;;;;;;;8.40;5.78;;;;;;;11.41;100.00;100711.88;2073196;28;20503;-72
2023/03/27 03:21:15;;;;;;;9.00;5.50;;;;;;;11.42;100.00;100709.22;2070490;28;20661;-72
2023/03/27 03:22:40;;;;;;;10.10;5.40;;;;;;;11.45;100.00;100713.69;2062362;28;20046;-72
2023/03/27 03:24:03;;;;;;;7.63;5.38;;;;;;;11.47;100.00;100706.66;2076929;28;20425;-72
2023/03/27 03:25:24;;;;;;;8.27;5.55;;;;;;;11.50;100.00;100717.25;2069919;28;20430;-72
2023/03/27 03:26:49;;;;;;;8.40;6.05;;;;;;;11.53;100.00;100709.38;2078425;28;20049;-73
2023/03/27 03:28:12;;;;;;;9.25;5.80;;;;;;;11.56;100.00;100709.38;2070922;28;20052;-72
2023/03/27 03:29:35;;;;;;;8.68;5.22;;;;;;;11.57;100.00;100704.13;2067935;28;20053;-72
2023/03/27 03:31:22;;;;;;;8.80;5.20;;;;;;;11.60;100.00;100708.56;2089278;28;20041;-72
2023/03/27 03:32:49;;;;;;;8.50;5.45;;;;;;;11.63;100.00;100716.50;2067852;28;20502;-71
2023/03/27 03:34:11;;;;;;;7.32;4.80;;;;;;;11.67;100.00;100715.69;2075683;28;20049;-72
2023/03/27 03:35:34;;;;;;;9.15;5.32;;;;;;;11.68;100.00;100713.94;2080600;28;20044;-72
2023/03/27 03:36:59;;;;;;;8.35;4.95;;;;;;;11.69;100.00;100718.31;2078202;28;20312;-72
2023/03/27 03:38:26;;;;;;;7.13;4.60;;;;;;;11.69;100.00;100716.56;2079011;28;20033;-72
2023/03/27 03:39:49;;;;;;;7.90;4.68;;;;;;;11.72;100.00;100715.72;2076270;28;20058;-72
2023/03/27 03:41:13;;;;;;;9.80;4.85;;;;;;;11.80;100.00;100711.44;2074097;28;20068;-72
2023/03/27 03:42:35;;;;;;;6.65;4.53;;;;;;;11.91;100.00;100712.44;2075738;28;20406;-72
2023/03/27 03:43:58;;;;;;;;;;;;;;;11.96;100.00;100708.94;2078721;28;20099;-72
2023/03/27 03:45:20;;;;;;;7.32;4.55;;;;;;;12.07;100.00;100709.06;2075346;28;19928;-73
2023/03/27 03:46:43;;;;;;;7.13;4.40;;;;;;;12.17;100.00;100712.66;2070424;28;20494;-73
2023/03/27 03:48:06;;;;;;;7.15;4.30;;;;;;;12.25;100.00;100713.59;2082613;28;20580;-74
2023/03/27 03:49:27;;;;;;;8.25;4.70;;;;;;;12.35;100.00;100718.97;2080986;28;20054;-73
2023/03/27 03:50:50;;;;;;;6.95;4.25;;;;;;;12.44;100.00;100712.88;2078213;28;20057;-73
2023/03/27 03:52:12;;;;;;;7.38;4.30;;;;;;;12.54;100.00;100722.63;2080812;28;20367;-72
2023/03/27 03:53:33;;;;;;;7.25;4.47;;;;;;;12.58;100.00;100721.78;2064381;28;20050;-73
2023/03/27 03:54:56;;;;;;;9.13;3.85;;;;;;;12.57;100.00;100722.66;2062920;28;20046;-72
2023/03/27 03:56:17;;;;;;;7.53;4.53;;;;;;;12.57;100.00;100725.31;2080483;28;20041;-73
2023/03/27 03:57:40;;;;;;;8.13;4.45;;;;;;;12.54;100.00;100729.69;2078328;28;20180;-72
2023/03/27 03:59:09;;;;;;;10.27;5.32;;;;;;;12.48;100.00;100725.25;2075215;28;20049;-72
2023/03/27 04:00:36;;;;;;;7.68;4.78;;;;;;;12.43;100.00;100720.78;2065169;28;20053;-72
2023/03/27 04:02:03;;;;;;;7.35;4.55;;;;;;;12.38;100.00;100731.34;2073823;28;20101;-73
2023/03/27 04:03:30;;;;;;;9.73;5.13;;;;;;;12.34;100.00;100724.25;2084650;28;20393;-72
2023/03/27 04:04:53;;;;;;;7.65;4.93;;;;;;;12.35;100.00;100733.97;2078825;28;20057;-72
2023/03/27 04:06:16;;;;;;;6.38;4.43;;;;;;;12.36;100.00;100731.34;2070184;28;20049;-73
2023/03/27 04:07:38;;;;;;;8.57;5.03;;;;;;;12.43;100.00;100731.38;2070577;28;20073;-73
2023/03/27 04:09:27;;;;;;;8.90;4.47;;;;;;;12.47;100.00;100734.06;2079233;28;20056;-73
2023/03/27 04:10:59;;;;;;;7.72;4.47;;;;;;;12.56;100.00;100734.13;2073482;28;20510;-73
2023/03/27 04:12:51;;;;;;;8.25;4.68;;;;;;;12.66;100.00;100735.97;2075744;28;20068;-73
2023/03/27 04:14:29;;;;;;;8.15;4.47;;;;;;;12.76;100.00;100736.91;2072391;28;20620;-72
2023/03/27 04:15:54;;;;;;;9.30;4.65;;;;;;;12.84;100.00;100735.19;2068775;28;20529;-72
2023/03/27 04:17:32;;;;;;;7.07;4.22;;;;;;;12.93;100.00;100735.22;2079621;28;20054;-73
2023/03/27 04:18:55;;;;;;;7.13;4.68;;;;;;;13.01;100.00;100727.31;2068460;28;20161;-72
2023/03/27 04:20:18;;;;;;;7.47;4.55;;;;;;;13.09;100.00;100730.91;2062341;28;20054;-72
2023/03/27 04:21:42;;;;;;;9.07;4.63;;;;;;;13.16;100.00;100728.34;2067499;28;20078;-72
2023/03/27 04:23:05;;;;;;;8.23;4.43;;;;;;;13.21;100.00;100728.34;2073965;28;20073;-73
2023/03/27 04:24:31;;;;;;;6.97;4.57;;;;;;;13.26;100.00;100736.34;2062559;28;20046;-73
2023/03/27 04:25:54;;;;;;;11.98;4.63;;;;;;;13.30;100.00;100739.00;2081569;28;20653;-72
2023/03/27 04:27:23;;;;;;;9.02;5.00;;;;;;;13.35;100.00;100731.06;2072465;28;20129;-73
2023/03/27 04:29:11;;;;;;;8.20;4.45;;;;;;;13.31;100.00;100738.13;2080459;28;20468;-73
2023/03/27 04:30:52;;;;;;;6.95;4.43;;;;;;;13.30;100.00;100731.03;2077376;28;20095;-72
2023/03/27 04:32:40;;;;;;;8.23;4.50;;;;;;;13.32;100.00;100724.00;2065414;28;20051;-72
2023/03/27 04:34:30;;;;;;;8.60;4.40;;;;;;;13.41;100.00;100731.97;2088093;28;20559;-72
2023/03/27 04:36:03;;;;;;;8.10;4.35;;;;;;;13.55;100.00;100726.69;2071005;28;20050;-72
2023/03/27 04:37:35;;;;;;;7.97;4.07;;;;;;;13.68;100.00;100739.13;2069884;28;20045;-73
2023/03/27 04:39:10;;;;;;;7.97;4.00;;;;;;;13.83;100.00;100740.94;2069121;28;20042;-72
2023/03/27 04:40:32;;;;;;;6.97;4.07;;;;;;;13.94;100.00;100731.19;2083647;28;20044;-72
2023/03/27 04:41:53;;;;;;;7.43;3.88;;;;;;;14.04;100.00;100748.94;2071414;28;20085;-72
2023/03/27 04:43:16;;;;;;;7.18;4.10;;;;;;;14.15;100.00;100751.59;2067167;28;20038;-73
2023/03/27 04:44:38;;;;;;;7.80;4.40;;;;;;;14.25;100.00;100754.22;2073574;28;20049;-72
2023/03/27 04:46:00;;;;;;;9.18;4.60;;;;;;;14.34;100.00;100753.34;2075362;28;20044;-72
2023/03/27 04:47:24;;;;;;;8.25;3.67;;;;;;;14.44;100.00;100744.53;2077153;28;20077;-73
2023/03/27 04:48:55;;;;;;;7.18;4.15;;;;;;;14.55;100.00;100749.84;2073909;28;20037;-72
2023/03/27 04:50:31;;;;;;;7.38;4.47;;;;;;;14.64;100.00;100748.03;2070513;28;20046;-72
2023/03/27 04:51:54;;;;;;;7.07;4.65;;;;;;;14.76;100.00;100752.47;2068673;28;20192;-72
2023/03/27 04:53:19;;;;;;;7.10;4.20;;;;;;;14.85;100.00;100752.44;2069709;28;20080;-72
2023/03/27 04:54:41;;;;;;;8.07;4.88;;;;;;;14.95;100.00;100751.56;2066610;28;20054;-72
2023/03/27 04:56:05;;;;;;;8.15;4.75;;;;;;;15.03;100.00;100752.41;2065676;28;20112;-72
2023/03/27 04:57:31;;;;;;;9.02;4.30;;;;;;;15.11;100.00;100750.59;2069270;28;20068;-72
2023/03/27 04:58:56;;;;;;;6.43;3.85;;;;;;;15.19;100.00;100753.25;2067820;28;20112;-73
2023/03/27 05:00:22;;;;;;;7.22;4.38;;;;;;;15.31;100.00;100754.97;2065301;28;20050;-73
2023/03/27 05:02:05;;;;;;;6.50;4.10;;;;;;;15.40;100.00;100757.59;2072382;28;20152;-72
2023/03/27 05:03:39;;;;;;;7.65;4.28;;;;;;;15.49;100.00;100747.78;2071052;28;20438;-73
2023/03/27 05:05:16;;;;;;;7.93;3.85;;;;;;;15.60;100.00;100745.13;2068037;28;20376;-72
2023/03/27 05:06:39;;;;;;;7.18;4.53;;;;;;;15.69;100.00;100744.16;2067530;28;20156;-73
2023/03/27 05:08:06;;;;;;;6.47;4.07;;;;;;;15.75;100.00;100744.16;2066318;28;20053;-72
2023/03/27 05:09:27;;;;;;;8.73;4.05;;;;;;;15.83;100.00;100742.31;2061478;28;20121;-73
2023/03/27 05:10:50;;;;;;;8.02;4.15;;;;;;;15.92;100.00;100751.16;2067231;28;20138;-73
2023/03/27 05:12:13;;;;;;;6.78;4.28;;;;;;;16.03;100.00;100752.84;2083359;28;20564;-73
2023/03/27 05:13:45;;;;;;;;;;;;;;;16.03;100.00;100756.38;2071758;28;20069;-73
2023/03/27 05:15:11;;;;;;;9.18;4.70;;;;;;;16.14;100.00;100759.88;2075613;28;19932;-72
2023/03/27 05:16:39;;;;;;;6.90;3.67;;;;;;;16.25;100.00;100759.78;2078528;28;20053;-73
2023/03/27 05:18:02;;;;;;;8.13;4.43;;;;;;;16.38;100.00;100769.47;2055714;28;20058;-72
2023/03/27 05:19:26;;;;;;;8.82;4.63;;;;;;;16.48;100.00;100763.13;2073430;28;20092;-72
2023/03/27 05:20:55;;;;;;;8.02;4.00;;;;;;;16.58;100.00;100766.63;2055816;28;20047;-72
2023/03/27 05:22:18;;;;;;;6.97;4.18;;;;;;;16.68;100.00;100768.31;2065599;28;20050;-73
2023/03/27 05:23:47;;;;;;;8.32;3.90;;;;;;;16.77;100.00;100770.91;2070267;28;20049;-72
2023/03/27 05:25:10;;;;;;;7.65;4.57;;;;;;;16.87;100.00;100761.91;2060875;28;20407;-73
2023/03/27 05:26:32;;;;;;;9.68;4.78;;;;;;;16.95;100.00;100757.38;2067153;28;20050;-72
2023/03/27 05:27:54;;;;;;;9.25;5.00;;;;;;;17.03;100.00;100765.31;2069073;28;20046;-73
2023/03/27 05:29:18;;;;;;;7.90;4.75;;;;;;;17.11;100.00;100771.47;2061667;28;20403;-73
2023/03/27 05:30:42;;;;;;;11.02;6.63;;;;;;;17.21;100.00;100769.56;2067434;28;20042;-73
2023/03/27 05:32:18;;;;;;;16.02;6.65;;;;;;;17.30;100.00;100770.34;2071401;28;20092;-73
2023/03/27 05:33:44;;;;;;;15.02;5.97;;;;;;;17.40;100.00;100763.97;2077462;28;20103;-73
2023/03/27 05:35:06;;;;;;;12.70;6.05;;;;;;;17.50;100.00;100768.31;2069269;28;20530;-73
2023/03/27 05:36:36;;;;;;;12.70;6.53;;;;;;;17.63;100.00;100765.53;2076624;28;20057;-73
2023/03/27 05:37:59;;;;;;;8.52;5.22;;;;;;;17.73;100.00;100765.38;2069629;28;20069;-73
2023/03/27 05:39:30;;;;;;;10.25;5.45;;;;;;;17.83;100.00;100767.03;2070642;28;20749;-73
2023/03/27 05:40:52;;;;;;;8.25;4.50;;;;;;;17.93;100.00;100757.97;2068207;28;20073;-72
2023/03/27 05:42:15;;;;;;;9.68;5.40;;;;;;;18.03;100.00;100758.72;2069193;28;20042;-73
2023/03/27 05:43:39;;;;;;;9.18;4.30;;;;;;;18.13;100.00;100763.00;2075278;28;20053;-73
2023/03/27 05:45:00;;;;;;;8.45;4.65;;;;;;;18.22;100.00;100760.19;2069405;28;20077;-73
2023/03/27 05:46:23;;;;;;;8.20;4.43;;;;;;;18.33;100.00;100752.88;2075294;28;20042;-73
2023/03/27 05:47:57;;;;;;;11.43;4.68;;;;;;;18.46;100.00;100752.69;2070811;28;20058;-72
2023/03/27 05:49:20;;;;;;;9.80;4.70;;;;;;;18.56;100.00;100754.34;2066902;28;20067;-73
2023/03/27 05:50:47;;;;;;;8.30;4.18;;;;;;;18.67;100.00;100749.69;2076228;28;20057;-73
2023/03/27 05:52:18;;;;;;;7.05;4.20;;;;;;;18.77;100.00;100740.59;2062280;28;20496;-73
2023/03/27 05:53:42;;;;;;;7.93;4.50;;;;;;;18.87;100.00;100747.53;2085598;28;20101;-73
2023/03/27 05:55:16;;;;;;;8.35;5.10;;;;;;;18.98;100.00;100742.84;2077106;28;20111;-73
2023/03/27 05:56:39;;;;;;;6.93;4.03;;;;;;;19.08;100.00;100741.78;2081387;28;20140;-73
2023/03/27 05:58:01;;;;;;;9.02;4.38;;;;;;;19.16;100.00;100738.06;2077337;28;20136;-73
2023/03/27 05:59:24;;;;;;;9.38;5.30;;;;;;;19.21;100.00;100720.09;2074740;28;20087;-73
2023/03/27 06:00:51;;;;;;;8.55;4.45;;;;;;;19.28;100.00;100725.31;2063243;28;20046;-73
2023/03/27 06:02:17;;;;;;;8.02;4.25;;;;;;;19.37;100.00;100725.09;2067990;28;20335;-73
2023/03/27 06:03:48;;;;;;;8.32;4.55;;;;;;;19.46;100.00;100724.94;2069030;28;20537;-73
2023/03/27 06:05:16;;;;;;;8.55;4.30;;;;;;;19.58;100.00;100722.91;2078573;28;20102;-73
2023/03/27 06:06:44;;;;;;;7.95;4.00;;;;;;;19.68;100.00;100725.38;2076038;28;20080;-73
2023/03/27 06:08:10;;;;;;;10.65;4.25;;;;;;;19.77;100.00;100730.50;2074835;28;20562;-73
2023/03/27 06:09:34;;;;;;;8.10;4.32;;;;;;;19.86;100.00;100726.75;2075464;28;20564;-73
2023/03/27 06:11:15;;;;;;;14.00;4.82;;;;;;;19.98;100.00;100723.78;2088132;28;20041;-73
2023/03/27 06:12:42;;;;;;;9.05;4.30;;;;;;;20.08;100.00;100727.13;2079846;28;20049;-73
2023/03/27 06:14:14;;;;;;;;;;;;;;;20.10;100.00;100718.13;2079156;28;20065;-73
2023/03/27 06:15:54;;;;;;;6.80;4.30;;;;;;;20.30;100.00;100720.31;2079192;28;19928;-73
2023/03/27 06:17:42;;;;;;;7.72;3.88;;;;;;;20.43;99.73;100720.91;2087158;28;20056;-73
2023/03/27 06:19:04;;;;;;;10.13;4.57;;;;;;;20.55;99.95;100712.53;2069551;28;20088;-73
2023/03/27 06:20:27;;;;;;;6.28;3.70;;;;;;;20.71;100.00;100721.09;2064900;28;20511;-73
2023/03/27 06:21:50;;;;;;;6.80;3.40;;;;;;;20.87;100.00;100714.41;2072866;28;20046;-73
2023/03/27 06:23:14;;;;;;;7.93;3.47;;;;;;;21.04;98.46;100725.53;2091027;28;20392;-73
2023/03/27 06:24:37;;;;;;;8.88;3.60;;;;;;;21.20;95.35;100715.28;2079413;28;20521;-73
2023/03/27 06:26:00;;;;;;;6.63;3.42;;;;;;;21.31;93.16;100708.66;2069420;28;20050;-73
2023/03/27 06:27:24;;;;;;;7.30;3.65;;;;;;;21.41;90.16;100718.19;2075119;28;20045;-73
2023/03/27 06:28:47;;;;;;;6.68;3.40;;;;;;;21.52;89.47;100712.53;2074887;28;20103;-73
2023/03/27 06:30:11;;;;;;;9.25;3.92;;;;;;;21.63;87.80;100713.06;2074943;28;20041;-73
2023/03/27 06:31:37;;;;;;;7.63;3.15;;;;;;;21.69;85.62;100712.88;2090925;28;20099;-73
2023/03/27 06:33:04;;;;;;;5.78;3.33;;;;;;;21.72;84.45;100714.59;2079790;28;20497;-73
2023/03/27 06:34:26;;;;;;;5.53;3.05;;;;;;;21.76;81.18;100710.88;2077294;28;20056;-74
2023/03/27 06:35:58;;;;;;;7.15;3.30;;;;;;;21.81;81.99;100704.44;2086565;28;20052;-73
2023/03/27 06:37:32;;;;;;;8.60;2.72;;;;;;;21.89;80.03;100698.81;2078767;28;20728;-73
2023/03/27 06:38:56;;;;;;;6.18;3.00;;;;;;;21.91;77.64;100696.97;2080280;28;20044;-73
2023/03/27 06:40:21;;;;;;;5.90;3.50;;;;;;;21.95;77.29;100692.34;2077476;28;20418;-73
2023/03/27 06:41:44;;;;;;;4.72;2.85;;;;;;;22.03;77.37;100690.34;2063354;28;20141;-73
2023/03/27 06:43:29;;;;;;;6.60;3.55;;;;;;;22.09;75.93;100700.91;2079638;28;20077;-73